createdAt,value
2022-10-11T00:06:55.272Z,1004.62
2022-10-11T00:17:02.304Z,1004.71
2022-10-11T00:27:08.339Z,1004.77
2022-10-11T00:37:13.991Z,1004.89
2022-10-11T00:47:19.986Z,1005.00
2022-10-11T00:57:26.585Z,1005.00
2022-10-11T01:07:32.681Z,1005.10
2022-10-11T01:17:38.487Z,1005.13
2022-10-11T01:27:44.440Z,1005.18
2022-10-11T01:37:50.391Z,1005.17
2022-10-11T01:47:56.670Z,1005.27
2022-10-11T01:58:02.850Z,1005.37
2022-10-11T02:08:09.276Z,1005.44
2022-10-11T02:18:15.399Z,1005.47
2022-10-11T02:28:21.429Z,1005.67
2022-10-11T02:38:27.864Z,1005.78
2022-10-11T02:48:34.400Z,1005.89
2022-10-11T02:58:40.089Z,1006.04
2022-10-11T03:08:46.076Z,1006.03
2022-10-11T03:18:51.776Z,1006.21
2022-10-11T03:28:57.829Z,1006.36
2022-10-11T03:39:03.679Z,1006.32
2022-10-11T03:49:10.016Z,1006.55
2022-10-11T03:59:16.179Z,1006.63
2022-10-11T04:09:22.049Z,1006.71
2022-10-11T04:19:27.553Z,1006.83
2022-10-11T04:29:33.578Z,1006.92
2022-10-11T04:39:39.735Z,1006.95
2022-10-11T04:49:45.634Z,1007.13
2022-10-11T04:59:51.796Z,1007.25
2022-10-11T05:09:58.146Z,1007.38
2022-10-11T05:20:04.230Z,1007.50
2022-10-11T05:30:10.180Z,1007.56
2022-10-11T05:40:16.382Z,1007.68
2022-10-11T05:50:24.471Z,1007.82
2022-10-11T06:00:32.551Z,1007.93
2022-10-11T06:10:38.792Z,1008.13
2022-10-11T06:20:47.722Z,1008.26
2022-10-11T06:30:55.270Z,1008.36
2022-10-11T06:41:02.372Z,1008.56
2022-10-11T06:51:10.375Z,1008.54
2022-10-11T07:01:16.617Z,1008.65
2022-10-11T07:11:22.893Z,1008.77
2022-10-11T07:21:28.941Z,1008.88
2022-10-11T07:31:35.047Z,1008.96
2022-10-11T07:41:45.624Z,1009.04
2022-10-11T07:51:52.148Z,1009.16
2022-10-11T08:01:58.002Z,1009.22
2022-10-11T08:12:04.980Z,1009.27
2022-10-11T08:22:11.147Z,1009.34
2022-10-11T08:32:17.042Z,1009.26
2022-10-11T08:42:23.431Z,1009.27
2022-10-11T08:52:29.619Z,1009.26
2022-10-11T09:03:02.870Z,1009.30
2022-10-11T09:12:46.822Z,1009.27
2022-10-11T09:22:52.890Z,1009.25
2022-10-11T09:32:59.615Z,1009.20
2022-10-11T09:43:07.056Z,1009.28
2022-10-11T09:53:14.875Z,1009.32
2022-10-11T10:03:22.339Z,1009.20
2022-10-11T10:13:30.042Z,1009.21
2022-10-11T10:23:37.364Z,1009.28
2022-10-11T10:33:44.747Z,1009.24
2022-10-11T10:43:51.265Z,1009.26
2022-10-11T10:53:57.323Z,1009.27
2022-10-11T11:04:03.984Z,1009.27
2022-10-11T11:14:11.319Z,1009.18
2022-10-11T11:24:18.662Z,1009.05
2022-10-11T11:34:26.456Z,1009.01
2022-10-11T11:44:33.718Z,1008.98
2022-10-11T11:54:41.165Z,1008.96
2022-10-11T12:04:48.418Z,1008.85
2022-10-11T12:14:56.138Z,1008.77
2022-10-11T12:25:02.854Z,1008.75
2022-10-11T12:35:10.220Z,1008.73
2022-10-11T12:45:17.564Z,1008.73
2022-10-11T12:55:24.992Z,1008.67
2022-10-11T13:05:32.267Z,1008.71
2022-10-11T13:15:39.607Z,1008.61
2022-10-11T13:25:47.173Z,1008.64
2022-10-11T13:35:53.326Z,1008.58
2022-10-11T13:46:00.766Z,1008.47
2022-10-11T13:56:08.351Z,1008.45
2022-10-11T14:06:15.853Z,1008.41
2022-10-11T14:16:23.047Z,1008.39
2022-10-11T14:26:30.259Z,1008.43
2022-10-11T14:36:37.520Z,1008.32
2022-10-11T14:46:44.724Z,1008.28
2022-10-11T14:56:51.812Z,1008.32
2022-10-11T15:06:58.719Z,1008.38
2022-10-11T15:17:06.101Z,1008.35
2022-10-11T15:27:13.000Z,1008.45
2022-10-11T15:37:20.264Z,1008.44
2022-10-11T15:47:29.027Z,1008.50
2022-10-11T15:57:35.582Z,1008.48
2022-10-11T16:07:42.356Z,1008.52
2022-10-11T16:17:49.111Z,1008.61
2022-10-11T16:27:56.175Z,1008.66
2022-10-11T16:38:02.998Z,1008.69
2022-10-11T16:48:09.693Z,1008.71
2022-10-11T16:58:16.431Z,1008.78
2022-10-11T17:08:23.233Z,1008.88
2022-10-11T17:18:30.496Z,1008.94
2022-10-11T17:28:37.255Z,1008.98
2022-10-11T17:38:44.369Z,1009.08
2022-10-11T17:48:51.464Z,1008.98
2022-10-11T17:58:58.005Z,1009.01
2022-10-11T18:09:04.843Z,1009.08
2022-10-11T18:19:11.920Z,1009.06
2022-10-11T18:29:19.062Z,1008.99
2022-10-11T18:39:26.099Z,1008.98
2022-10-11T18:49:33.154Z,1008.98
2022-10-11T18:59:40.367Z,1008.95
2022-10-11T19:09:47.849Z,1008.97
2022-10-11T19:19:53.684Z,1009.00
2022-10-11T19:29:59.289Z,1008.92
2022-10-11T19:40:04.686Z,1008.98
2022-10-11T19:50:10.941Z,1008.92
2022-10-11T20:00:16.961Z,1009.02
2022-10-11T20:10:22.743Z,1008.93
2022-10-11T20:20:29.294Z,1009.01
2022-10-11T20:30:35.279Z,1009.07
2022-10-11T20:40:41.233Z,1009.19
2022-10-11T20:50:47.490Z,1009.13
2022-10-11T21:00:53.454Z,1009.09
2022-10-11T21:10:59.406Z,1009.12
2022-10-11T21:21:04.797Z,1009.16
2022-10-11T21:31:11.080Z,1009.16
2022-10-11T21:41:17.031Z,1009.19
2022-10-11T21:51:23.159Z,1009.21
2022-10-11T22:01:29.013Z,1009.17
2022-10-11T22:11:35.656Z,1009.21
2022-10-11T22:21:45.029Z,1009.23
2022-10-11T22:31:51.121Z,1009.24
2022-10-11T22:41:57.484Z,1009.23
2022-10-11T22:52:03.512Z,1009.15
2022-10-11T23:02:09.789Z,1009.16
2022-10-11T23:12:16.001Z,1009.20
2022-10-11T23:22:21.437Z,1009.19
2022-10-11T23:32:28.943Z,1009.23
2022-10-11T23:42:35.443Z,1009.35
2022-10-11T23:52:41.656Z,1009.29
